หน้าหลัก
METAR-TAF:

METAR-TAF

ท่าอากาศยาน :

Air Force Base Waterkloof

Waterkloof, แอฟริกาใต้

ละติจูด: 25-50S, ลองจิจูด: 028-13E, ความสูง: 1498 ม.

การสังเกตสภาพอากาศปัจจุบัน

รายงานได้ทำขึ้นเมื่อ 42 นาทีที่แล้ว ณ เวลา 03:00 UTC
ลม 7 นอตจากตะวันออกเฉียงเหนือ
อุณหภูมิ 17°C
ความชื้น 68%
ความกดอากาศ 1023 hPa

METAR: FAWK 020300Z AUTO 04007KT //// // ////// 17/11 Q1023

เวลา: 05:42 (03:42 UTC)


TAF: หายไป

สังเกตการณ์สภาพอากาศและพยากรณ์อากาศของสนามบินมากกว่า 4000 แห่ง (รายงาน METAR และ TAF).

สถานีที่ดูได้จะแสดงไว้ด้วยจุดสีเหลืองและสีแดงบนแผนที่.

เลื่อนเมาส์ไปเหนือจุดเพื่อดูชื่อสถานี.

แล้วคลิกเพื่อดูสังเกตการณ์และการพยากรณ์สภาพอากาศ.

ในการเปลี่ยนแผนที่: คลิกที่ปุ่มสีเขียวที่มีกากบาทสีดำเพื่อซูมเข้า; ที่ปุ่มสีเขียวที่มีขีดเพื่อซูมออก; หรือที่ลูกศรสีเขียวเพื่อไปยังแผนที่ที่อยู่ติดกัน.


METAR-TAF: